createdAt,value
2018-05-06T04:09:28.082Z,11.59
2018-05-06T04:09:53.483Z,11.51
2018-05-06T04:10:18.935Z,11.51
2018-05-06T04:10:44.475Z,11.66
2018-05-06T04:11:09.940Z,11.59
2018-05-06T04:11:35.481Z,11.48
2018-05-06T04:12:00.858Z,11.59
2018-05-06T04:12:26.378Z,11.55
2018-05-06T04:12:51.829Z,11.68
2018-05-06T04:13:17.507Z,11.63
2018-05-06T04:13:42.945Z,11.51
2018-05-06T04:14:08.437Z,11.62
2018-05-06T04:14:33.895Z,11.59
2018-05-06T04:14:59.416Z,11.6
2018-05-06T04:15:24.811Z,11.62
2018-05-06T04:15:50.281Z,11.57
2018-05-06T04:16:15.788Z,11.63
2018-05-06T04:16:41.281Z,11.65
2018-05-06T04:17:06.780Z,11.63
2018-05-06T04:17:32.285Z,11.68
2018-05-06T04:17:58.034Z,11.6
2018-05-06T04:18:23.440Z,11.62
2018-05-06T04:18:48.893Z,11.65
2018-05-06T04:19:14.409Z,11.7
2018-05-06T04:19:39.846Z,11.69
2018-05-06T04:20:05.343Z,11.62
2018-05-06T04:20:30.833Z,11.72
2018-05-06T04:20:56.292Z,11.65
2018-05-06T04:21:21.934Z,11.72
2018-05-06T04:21:47.255Z,11.7
2018-05-06T04:22:12.760Z,11.75
2018-05-06T04:22:38.179Z,11.7
2018-05-06T04:23:03.655Z,11.78
2018-05-06T04:23:29.146Z,11.69
2018-05-06T04:23:54.587Z,11.77
2018-05-06T04:24:20.060Z,11.66
2018-05-06T04:24:45.530Z,11.69
2018-05-06T04:25:11.004Z,11.73
2018-05-06T04:25:36.504Z,11.72
2018-05-06T04:26:01.903Z,11.69
2018-05-06T04:26:27.374Z,11.7
2018-05-06T04:26:52.841Z,11.72
2018-05-06T04:27:18.389Z,11.75
2018-05-06T04:27:43.872Z,11.7
2018-05-06T04:28:09.314Z,11.7
2018-05-06T04:28:34.947Z,11.73
2018-05-06T04:29:00.277Z,11.69
2018-05-06T04:29:25.818Z,11.72
2018-05-06T04:29:51.291Z,11.72
2018-05-06T04:30:16.830Z,11.73
2018-05-06T04:30:42.292Z,11.7
2018-05-06T04:31:07.697Z,11.66
2018-05-06T04:31:33.186Z,11.72
2018-05-06T04:31:58.714Z,11.72
2018-05-06T04:32:24.184Z,11.75
2018-05-06T04:32:49.656Z,11.8
2018-05-06T04:33:15.066Z,11.8
2018-05-06T04:33:40.665Z,11.68
2018-05-06T04:34:06.076Z,11.8
2018-05-06T04:34:31.633Z,11.77
2018-05-06T04:34:57.103Z,11.8
2018-05-06T04:35:22.637Z,11.7
2018-05-06T04:35:48.016Z,11.87
2018-05-06T04:36:13.424Z,11.81
2018-05-06T04:36:38.878Z,11.73
2018-05-06T04:37:04.342Z,11.86
2018-05-06T04:37:29.863Z,11.83
2018-05-06T04:37:55.334Z,11.87
2018-05-06T04:38:20.829Z,11.78
2018-05-06T04:38:46.455Z,11.77
2018-05-06T04:39:11.885Z,11.91
2018-05-06T04:39:37.501Z,11.8
2018-05-06T04:40:02.949Z,11.88
2018-05-06T04:40:28.441Z,11.94
2018-05-06T04:40:53.824Z,11.94
2018-05-06T04:41:19.317Z,11.99
2018-05-06T04:41:44.849Z,11.9
2018-05-06T04:42:10.310Z,11.87
2018-05-06T04:42:35.919Z,11.91
2018-05-06T04:43:01.427Z,11.95
2018-05-06T04:43:26.944Z,11.9
2018-05-06T04:43:52.481Z,11.99
2018-05-06T04:44:17.990Z,11.99
2018-05-06T04:44:43.414Z,12.06
2018-05-06T04:45:08.951Z,11.99
2018-05-06T04:45:34.376Z,12.02
2018-05-06T04:45:59.886Z,12.1
2018-05-06T04:46:25.393Z,12.13
2018-05-06T04:46:50.875Z,12.13
2018-05-06T04:47:16.369Z,12.09
2018-05-06T04:47:41.795Z,12.1
2018-05-06T04:48:07.247Z,12.2
2018-05-06T04:48:32.811Z,12.15
2018-05-06T04:48:58.281Z,12.22
2018-05-06T04:49:23.764Z,12.15
2018-05-06T04:49:49.247Z,12.24
2018-05-06T04:50:14.681Z,12.24
2018-05-06T04:50:40.225Z,12.29
2018-05-06T04:51:05.659Z,12.32
2018-05-06T04:51:31.054Z,12.42
2018-05-06T04:51:56.622Z,12.36
2018-05-06T04:52:22.106Z,12.39
2018-05-06T04:52:47.610Z,12.37
2018-05-06T04:53:13.018Z,12.45
2018-05-06T04:53:38.480Z,12.43
2018-05-06T04:54:03.960Z,12.47
2018-05-06T04:54:29.414Z,12.47
2018-05-06T04:54:54.889Z,12.54
2018-05-06T04:55:20.319Z,12.6
2018-05-06T04:55:45.783Z,12.62
2018-05-06T04:56:11.271Z,12.73
2018-05-06T04:56:36.808Z,12.72
2018-05-06T04:57:02.219Z,12.76
2018-05-06T04:57:27.702Z,12.85
2018-05-06T04:57:53.170Z,12.9
2018-05-06T04:58:18.665Z,12.91
2018-05-06T04:58:44.095Z,12.98
2018-05-06T04:59:09.543Z,13.15
2018-05-06T04:59:35.048Z,13.13
2018-05-06T05:00:00.494Z,13.18
2018-05-06T05:00:25.953Z,13.22
2018-05-06T05:00:51.379Z,13.33
2018-05-06T05:01:16.843Z,13.38
2018-05-06T05:01:42.284Z,13.35
2018-05-06T05:02:07.768Z,13.38
2018-05-06T05:02:33.202Z,13.31
2018-05-06T05:02:58.743Z,13.42
2018-05-06T05:03:24.148Z,13.41
2018-05-06T05:03:49.609Z,13.42
2018-05-06T05:04:15.111Z,13.5
2018-05-06T05:04:40.567Z,13.54
2018-05-06T05:05:06.139Z,13.56
2018-05-06T05:05:31.602Z,13.47
2018-05-06T05:05:57.073Z,13.59
2018-05-06T05:06:22.483Z,13.5
2018-05-06T05:06:48.023Z,13.57
2018-05-06T05:07:13.527Z,13.57
2018-05-06T05:07:39.061Z,13.63
2018-05-06T05:08:04.531Z,13.62
2018-05-06T05:08:30.052Z,13.63
2018-05-06T05:08:55.573Z,13.57
2018-05-06T05:09:20.996Z,13.57
2018-05-06T05:09:46.491Z,13.67
2018-05-06T05:10:11.982Z,13.62
2018-05-06T05:10:37.433Z,13.65
2018-05-06T05:11:02.903Z,13.67
2018-05-06T05:11:28.349Z,13.67
2018-05-06T05:11:53.836Z,13.7
2018-05-06T05:12:19.428Z,13.77
2018-05-06T05:12:44.880Z,13.78
2018-05-06T05:13:10.343Z,13.78
2018-05-06T05:13:35.837Z,13.85
2018-05-06T05:14:01.294Z,13.95
2018-05-06T05:14:26.727Z,13.9
2018-05-06T05:14:52.223Z,14.05
2018-05-06T05:15:17.728Z,14.04
2018-05-06T05:15:43.283Z,14.05
2018-05-06T05:16:08.757Z,14.05
2018-05-06T05:16:34.302Z,14.1
2018-05-06T05:16:59.884Z,14.11
2018-05-06T05:17:25.418Z,14.17
2018-05-06T05:17:50.926Z,14.18
2018-05-06T05:18:16.425Z,14.22
2018-05-06T05:18:41.915Z,14.22
2018-05-06T05:19:07.490Z,14.3
2018-05-06T05:19:32.965Z,14.33
2018-05-06T05:19:58.497Z,14.33
2018-05-06T05:20:24.089Z,14.28
2018-05-06T05:20:49.616Z,14.29
2018-05-06T05:21:15.080Z,14.3
2018-05-06T05:21:40.607Z,14.28
2018-05-06T05:22:06.094Z,14.29
2018-05-06T05:22:31.604Z,14.35
2018-05-06T05:22:57.038Z,14.4
2018-05-06T05:23:22.511Z,14.35
2018-05-06T05:23:47.954Z,14.36
2018-05-06T05:24:13.398Z,14.44
2018-05-06T05:24:38.870Z,14.43
2018-05-06T05:25:04.324Z,14.53
2018-05-06T05:25:29.821Z,14.47
2018-05-06T05:25:55.297Z,14.65
2018-05-06T05:26:20.764Z,14.58
2018-05-06T05:26:46.240Z,14.63
2018-05-06T05:27:11.700Z,14.66
2018-05-06T05:27:37.189Z,14.81
2018-05-06T05:28:02.688Z,14.85
2018-05-06T05:28:28.174Z,14.85
2018-05-06T05:28:53.584Z,14.84
2018-05-06T05:29:19.062Z,14.86
2018-05-06T05:29:44.525Z,14.92
2018-05-06T05:30:09.959Z,14.99
2018-05-06T05:30:35.423Z,15.04
2018-05-06T05:31:00.902Z,15
2018-05-06T05:31:26.601Z,15.17
2018-05-06T05:31:52.092Z,15.06
2018-05-06T05:32:17.535Z,15.15
2018-05-06T05:32:42.966Z,15.24
2018-05-06T05:33:08.473Z,15.28
2018-05-06T05:33:33.929Z,15.31
2018-05-06T05:33:59.369Z,15.36
2018-05-06T05:34:24.884Z,15.29
2018-05-06T05:34:50.322Z,15.39
2018-05-06T05:35:15.776Z,15.42
2018-05-06T05:35:41.250Z,15.43
2018-05-06T05:36:06.731Z,15.47
2018-05-06T05:36:32.341Z,15.51
2018-05-06T05:36:57.962Z,15.52
2018-05-06T05:37:23.420Z,15.55
2018-05-06T05:37:48.885Z,15.58
2018-05-06T05:38:14.468Z,15.51
2018-05-06T05:38:39.862Z,15.59
2018-05-06T05:39:05.282Z,15.59
2018-05-06T05:39:30.742Z,15.59
2018-05-06T05:39:56.282Z,15.58
2018-05-06T05:40:21.807Z,15.59
2018-05-06T05:40:47.352Z,15.58
2018-05-06T05:41:12.795Z,15.58
2018-05-06T05:41:38.285Z,15.68
2018-05-06T05:42:03.814Z,15.77
2018-05-06T05:42:29.242Z,15.65
2018-05-06T05:42:54.737Z,15.68
2018-05-06T05:43:20.337Z,15.84
2018-05-06T05:43:45.752Z,15.8
2018-05-06T05:44:11.214Z,15.79
2018-05-06T05:44:36.671Z,15.86
2018-05-06T05:45:02.151Z,15.83
2018-05-06T05:45:27.712Z,15.86
2018-05-06T05:45:53.074Z,15.8
2018-05-06T05:46:18.757Z,15.9
2018-05-06T05:46:44.585Z,16
2018-05-06T05:47:10.091Z,15.92
2018-05-06T05:47:35.614Z,15.9
2018-05-06T05:48:01.049Z,15.95
2018-05-06T05:48:26.517Z,15.9
2018-05-06T05:48:51.994Z,15.8
2018-05-06T05:49:17.521Z,15.97
2018-05-06T05:49:43.069Z,15.9
2018-05-06T05:50:08.564Z,15.92
2018-05-06T05:50:34.140Z,15.97
2018-05-06T05:50:59.571Z,16.02
2018-05-06T05:51:25.225Z,16.01
2018-05-06T05:51:50.772Z,15.92
2018-05-06T05:52:16.279Z,16
2018-05-06T05:52:41.939Z,16.04
2018-05-06T05:53:07.822Z,16.01
2018-05-06T05:53:33.194Z,16.08
2018-05-06T05:53:58.830Z,16.09
2018-05-06T05:54:24.311Z,16.04
2018-05-06T05:54:49.886Z,16.08
2018-05-06T05:55:15.442Z,16.04
2018-05-06T05:55:40.965Z,16.02
2018-05-06T05:56:06.469Z,16.05
2018-05-06T05:56:32.019Z,16.17
2018-05-06T05:56:58.084Z,16.12
2018-05-06T05:57:23.157Z,16.2
2018-05-06T05:57:48.611Z,16.16
2018-05-06T05:58:14.089Z,16.28
2018-05-06T05:58:39.563Z,16.26
2018-05-06T05:59:04.981Z,16.35
2018-05-06T05:59:30.464Z,16.38
2018-05-06T05:59:55.992Z,16.32
2018-05-06T06:00:21.392Z,16.33
2018-05-06T06:00:46.883Z,16.28
2018-05-06T06:01:12.313Z,16.32
2018-05-06T06:01:37.777Z,16.36
2018-05-06T06:02:03.363Z,16.33
2018-05-06T06:02:29.008Z,16.26
2018-05-06T06:02:54.609Z,16.21
2018-05-06T06:03:20.145Z,16.23
2018-05-06T06:03:45.577Z,16.26
2018-05-06T06:04:11.168Z,16.23
2018-05-06T06:04:36.656Z,16.13
2018-05-06T06:05:02.199Z,16.17
2018-05-06T06:05:27.710Z,16.1
2018-05-06T06:05:53.266Z,16.09
2018-05-06T06:06:18.669Z,16.15
2018-05-06T06:06:44.237Z,16.02
2018-05-06T06:07:09.734Z,16.15
2018-05-06T06:07:35.183Z,16.01
2018-05-06T06:08:00.702Z,16.01
2018-05-06T06:08:26.207Z,16.02
2018-05-06T06:08:51.632Z,16.04
2018-05-06T06:09:17.811Z,16.04
2018-05-06T06:09:43.186Z,16.04
2018-05-06T06:10:08.635Z,16.02
2018-05-06T06:10:34.510Z,16.01
2018-05-06T06:10:59.856Z,16.16
2018-05-06T06:11:25.357Z,16.2
2018-05-06T06:11:51.413Z,16.15
2018-05-06T06:12:16.814Z,16.2
2018-05-06T06:12:42.447Z,16.24
2018-05-06T06:13:07.918Z,16.33
2018-05-06T06:13:33.397Z,16.33
2018-05-06T06:13:58.944Z,16.39
2018-05-06T06:14:24.450Z,16.38
2018-05-06T06:14:50.045Z,16.33
2018-05-06T06:15:15.457Z,16.36
2018-05-06T06:15:40.909Z,16.38
2018-05-06T06:16:06.396Z,16.53
2018-05-06T06:16:31.853Z,16.46
2018-05-06T06:16:57.331Z,16.53
2018-05-06T06:17:23.106Z,16.58
2018-05-06T06:17:48.480Z,16.53
2018-05-06T06:18:13.959Z,16.54
2018-05-06T06:18:39.340Z,16.65
2018-05-06T06:19:04.918Z,16.54
2018-05-06T06:19:30.368Z,16.54
2018-05-06T06:19:55.802Z,16.61
2018-05-06T06:20:21.283Z,16.64
2018-05-06T06:20:46.759Z,16.61
2018-05-06T06:21:12.295Z,16.58
2018-05-06T06:21:37.731Z,16.65
2018-05-06T06:22:03.364Z,16.66
2018-05-06T06:22:28.812Z,16.6
2018-05-06T06:22:54.292Z,16.72
2018-05-06T06:23:19.758Z,16.78
2018-05-06T06:23:45.245Z,16.75
2018-05-06T06:24:10.855Z,16.87
2018-05-06T06:24:36.344Z,16.83
2018-05-06T06:25:01.690Z,16.9
2018-05-06T06:25:27.160Z,16.91
2018-05-06T06:25:52.662Z,16.96
2018-05-06T06:26:18.163Z,16.91
2018-05-06T06:26:43.563Z,16.91
2018-05-06T06:27:09.026Z,16.89
2018-05-06T06:27:34.569Z,16.9
2018-05-06T06:27:59.960Z,16.96
2018-05-06T06:28:25.479Z,16.91
2018-05-06T06:28:51.017Z,16.89
2018-05-06T06:29:16.450Z,16.9
2018-05-06T06:29:41.913Z,16.91
2018-05-06T06:30:07.375Z,17.01
2018-05-06T06:30:32.944Z,16.97
2018-05-06T06:30:58.417Z,16.94
2018-05-06T06:31:23.862Z,17.04
2018-05-06T06:31:49.351Z,16.99
2018-05-06T06:32:14.905Z,17.11
2018-05-06T06:32:40.492Z,17.06
2018-05-06T06:33:06.013Z,17.16
2018-05-06T06:33:31.505Z,17.19
2018-05-06T06:33:56.988Z,17.2
2018-05-06T06:34:22.485Z,17.2
2018-05-06T06:34:47.960Z,17.3
2018-05-06T06:35:13.460Z,17.3
2018-05-06T06:35:38.939Z,17.31
2018-05-06T06:36:04.434Z,17.29
2018-05-06T06:36:29.851Z,17.34
2018-05-06T06:36:55.329Z,17.34
2018-05-06T06:37:20.915Z,17.44
2018-05-06T06:37:46.386Z,17.45
2018-05-06T06:38:11.869Z,17.48
2018-05-06T06:38:37.356Z,17.63
2018-05-06T06:39:02.818Z,17.54
2018-05-06T06:39:28.333Z,17.72
2018-05-06T06:39:53.800Z,17.7
2018-05-06T06:40:19.245Z,17.7
2018-05-06T06:40:44.856Z,17.82
2018-05-06T06:41:10.332Z,17.82
2018-05-06T06:41:35.833Z,17.82
2018-05-06T06:42:01.335Z,17.82
2018-05-06T06:42:27.047Z,17.92
2018-05-06T06:42:52.556Z,17.89
2018-05-06T06:43:18.038Z,17.94
2018-05-06T06:43:43.588Z,17.94
2018-05-06T06:44:09.304Z,17.94
2018-05-06T06:44:34.789Z,17.92
2018-05-06T06:45:01.507Z,17.92
2018-05-06T06:45:27.471Z,17.95
2018-05-06T06:45:52.937Z,17.94
2018-05-06T06:46:18.749Z,17.95
2018-05-06T06:46:44.201Z,17.94
2018-05-06T06:47:09.621Z,17.98
2018-05-06T06:47:35.231Z,18.04
2018-05-06T06:48:00.745Z,18.1
2018-05-06T06:48:26.208Z,18.05
2018-05-06T06:48:51.669Z,18.05
2018-05-06T06:49:17.221Z,18.05
2018-05-06T06:49:42.718Z,17.97
2018-05-06T06:50:08.185Z,18.08
2018-05-06T06:50:33.662Z,18.07
2018-05-06T06:50:59.134Z,18.04
2018-05-06T06:51:24.639Z,18.08
2018-05-06T06:51:50.107Z,18.07
2018-05-06T06:52:15.555Z,18.13
2018-05-06T06:52:41.020Z,18.08
2018-05-06T06:53:06.495Z,18.11
2018-05-06T06:53:31.961Z,18.13
2018-05-06T06:53:57.451Z,18.15
2018-05-06T06:54:22.923Z,18.1
2018-05-06T06:54:48.405Z,18.16
2018-05-06T06:55:13.888Z,18.25
2018-05-06T06:55:39.449Z,18.4
2018-05-06T06:56:04.849Z,18.22
2018-05-06T06:56:30.300Z,18.25
2018-05-06T06:56:55.806Z,18.33
2018-05-06T06:57:21.260Z,18.33
2018-05-06T06:57:46.746Z,18.38
2018-05-06T06:58:12.199Z,18.49
2018-05-06T06:58:37.640Z,18.44
2018-05-06T06:59:03.115Z,18.53
2018-05-06T06:59:28.652Z,18.56
2018-05-06T06:59:54.146Z,18.59
2018-05-06T07:00:19.609Z,18.58
2018-05-06T07:00:45.105Z,18.55
2018-05-06T07:01:10.566Z,18.56
2018-05-06T07:01:36.012Z,18.52
2018-05-06T07:02:01.468Z,18.52
2018-05-06T07:02:26.975Z,18.58
2018-05-06T07:02:52.457Z,18.58
2018-05-06T07:03:17.935Z,18.59
2018-05-06T07:03:43.548Z,18.58
2018-05-06T07:04:09.041Z,18.62
2018-05-06T07:04:34.552Z,18.58
2018-05-06T07:04:59.999Z,18.6
2018-05-06T07:05:25.517Z,18.66
2018-05-06T07:05:50.978Z,18.73
2018-05-06T07:06:16.429Z,18.74
2018-05-06T07:06:41.915Z,18.66
2018-05-06T07:07:07.464Z,18.66
2018-05-06T07:07:33.186Z,18.65
2018-05-06T07:07:58.645Z,18.65
2018-05-06T07:08:24.166Z,18.56
2018-05-06T07:08:49.698Z,18.53
2018-05-06T07:09:15.104Z,18.56
2018-05-06T07:09:40.595Z,18.56
2018-05-06T07:10:06.072Z,18.56
2018-05-06T07:10:31.508Z,18.53
2018-05-06T07:10:56.969Z,18.52
2018-05-06T07:11:22.463Z,18.58
2018-05-06T07:11:47.946Z,18.53
2018-05-06T07:12:13.399Z,18.59
2018-05-06T07:12:38.847Z,18.55
2018-05-06T07:13:04.473Z,18.56
2018-05-06T07:13:30.018Z,18.59
2018-05-06T07:13:55.448Z,18.66
2018-05-06T07:14:20.984Z,18.74
2018-05-06T07:14:46.521Z,18.7
2018-05-06T07:15:12.055Z,18.83
2018-05-06T07:15:37.558Z,18.86
2018-05-06T07:16:03.996Z,18.9
2018-05-06T07:16:29.491Z,18.83
2018-05-06T07:16:55.006Z,18.83
2018-05-06T07:17:20.528Z,18.88
2018-05-06T07:17:46.016Z,18.86
2018-05-06T07:18:11.529Z,18.66
2018-05-06T07:18:36.989Z,18.73
2018-05-06T07:19:02.629Z,18.65
2018-05-06T07:19:28.212Z,18.65
2018-05-06T07:19:53.678Z,18.73
2018-05-06T07:20:19.211Z,18.65
2018-05-06T07:20:44.778Z,18.58
2018-05-06T07:21:10.320Z,18.53
2018-05-06T07:21:35.897Z,18.63
2018-05-06T07:22:01.414Z,18.59
2018-05-06T07:22:27.067Z,18.66
2018-05-06T07:22:52.518Z,18.65
2018-05-06T07:23:18.045Z,18.77
2018-05-06T07:23:43.629Z,18.75
2018-05-06T07:24:09.025Z,18.8
2018-05-06T07:24:34.559Z,18.86
2018-05-06T07:25:00.154Z,18.81
2018-05-06T07:25:25.729Z,18.83
2018-05-06T07:25:51.243Z,18.88
2018-05-06T07:26:16.744Z,18.98
2018-05-06T07:26:42.312Z,18.92
2018-05-06T07:27:07.789Z,18.93
2018-05-06T07:27:33.313Z,19.02
2018-05-06T07:27:58.914Z,18.98
2018-05-06T07:28:24.424Z,18.93
2018-05-06T07:28:49.928Z,18.99
2018-05-06T07:29:15.436Z,19.15
2018-05-06T07:29:40.943Z,19.21
2018-05-06T07:30:06.494Z,19.21
2018-05-06T07:30:32.100Z,19.19
2018-05-06T07:30:57.780Z,19.12
2018-05-06T07:31:23.281Z,19.11
2018-05-06T07:31:48.940Z,19.19
2018-05-06T07:32:14.373Z,19.14
2018-05-06T07:32:39.867Z,19.09
2018-05-06T07:33:05.401Z,19.02
2018-05-06T07:33:30.906Z,18.99
2018-05-06T07:33:56.621Z,19.12
2018-05-06T07:34:22.168Z,19.08
2018-05-06T07:34:47.730Z,19.18
2018-05-06T07:35:13.232Z,19.21
2018-05-06T07:35:38.745Z,19.18
2018-05-06T07:36:04.418Z,19.34
2018-05-06T07:36:29.959Z,19.36
2018-05-06T07:36:55.633Z,19.4
2018-05-06T07:37:21.147Z,19.52
2018-05-06T07:37:46.803Z,19.41
2018-05-06T07:38:12.344Z,19.54
2018-05-06T07:38:37.886Z,19.45
2018-05-06T07:39:03.407Z,19.52
2018-05-06T07:39:29.001Z,19.58
2018-05-06T07:39:54.526Z,19.55
2018-05-06T07:40:20.173Z,19.58
2018-05-06T07:40:46.294Z,19.64
2018-05-06T07:41:11.726Z,19.54
2018-05-06T07:41:38.274Z,19.67
2018-05-06T07:42:03.822Z,19.66
2018-05-06T07:42:29.413Z,19.79
2018-05-06T07:42:55.149Z,19.86
2018-05-06T07:43:20.560Z,19.86
2018-05-06T07:43:46.111Z,19.89
2018-05-06T07:44:11.728Z,19.92
2018-05-06T07:44:37.580Z,19.88
2018-05-06T07:45:03.227Z,19.86
2018-05-06T07:45:28.807Z,19.85
2018-05-06T07:45:54.358Z,19.85
2018-05-06T07:46:19.921Z,19.85
2018-05-06T07:46:45.488Z,19.89
2018-05-06T07:47:10.985Z,19.76
2018-05-06T07:47:36.549Z,19.85
2018-05-06T07:48:02.044Z,19.89
2018-05-06T07:48:27.637Z,19.92
2018-05-06T07:48:53.183Z,19.99
2018-05-06T07:49:18.709Z,19.94
2018-05-06T07:49:44.186Z,19.91
2018-05-06T07:50:43.639Z,19.82
2018-05-06T07:51:09.301Z,19.88
2018-05-06T07:51:34.843Z,19.85
2018-05-06T07:52:00.923Z,19.7
2018-05-06T07:52:26.652Z,19.64
2018-05-06T07:52:52.289Z,19.67
2018-05-06T07:53:17.903Z,19.67
2018-05-06T07:53:44.223Z,19.63
2018-05-06T07:54:10.201Z,19.56
2018-05-06T07:54:35.926Z,19.59
2018-05-06T07:55:01.740Z,19.51
2018-05-06T07:55:27.620Z,19.56
2018-05-06T07:55:53.920Z,19.47
2018-05-06T07:56:19.416Z,19.48
2018-05-06T07:56:45.180Z,19.45
2018-05-06T07:57:11.930Z,19.36
2018-05-06T07:57:37.275Z,19.62
2018-05-06T07:58:27.611Z,19.55
2018-05-06T07:58:53.754Z,19.66
